Portada
METAR-TAF:

METAR-TAF

Aeroports :

Savannakhet, Laos

latitud: 16-33-24N, longitud: 104-45-34E, altitud: 155 m

Observació

L'informe es va fer fa 18 minuts, a les 03:00 UTC
Vent 6 kt del Sud-Oest
Temperatura 31°C
Humitat 66%
Pressió 1013 hPa
Visibilitat: 8000 m
Escasses núvols a una alçada de 2000 ft

METAR: VLSK 180300Z 22006KT 8000 FEW020 31/24 Q1013 NOSIG

Hora: 10:18 (03:18 UTC)

Pronòstic

L'informe es va fer fa 4 hores i 18 minuts, a les 23:00 UTC
Pronòstic vàlid del 18 a les 00 UTC al 18 a les 24 UTC
Vent 4 kt del Oest/Sud-Oest
Visibilitat: 8000 m
Escasses núvols a una alçada de 1600 ft
Escasses núvols a una alçada de 5000 ft
Núvols disperses a una alçada de 10000 ft

TAF: VLSK 172300Z 1800/1824 24004KT 8000 FEW016 FEW050 SCT100

Observacions i pronòstics meteorològics de més de 4000 aeroports (METAR i TAF).

Les estacions disponibles són els punts grocs i vermells al mapa.

Posi el ratolí al punt desitjat per veure el nom de l'estació.

Feu clic per veure les observacions i els pronòstics meteorològics.

Per canviar el mapa: feu clic els botons verds amb una creu de color negre per apropar; al botó verd amb un guió per allunyar la imatge; o en les fletxes verdes per a mapes adjacents.


METAR-TAF: